createdAt,value
2022-12-08T00:02:10.989Z,23.52
2022-12-08T00:07:30.624Z,19.98
2022-12-08T00:12:35.396Z,26.77
2022-12-08T00:17:40.128Z,23.92
2022-12-08T00:22:47.500Z,20.83
2022-12-08T00:27:52.498Z,22.70
2022-12-08T00:32:57.316Z,27.02
2022-12-08T00:38:04.778Z,22.33
2022-12-08T00:43:09.588Z,24.17
2022-12-08T00:48:14.457Z,21.10
2022-12-08T00:53:21.732Z,24.00
2022-12-08T00:58:26.424Z,23.30
2022-12-08T01:03:31.133Z,21.67
2022-12-08T01:08:38.759Z,22.35
2022-12-08T01:13:43.701Z,24.13
2022-12-08T01:18:48.400Z,23.45
2022-12-08T01:23:55.756Z,19.75
2022-12-08T01:29:00.495Z,21.95
2022-12-08T01:34:05.257Z,25.42
2022-12-08T01:39:16.613Z,29.05
2022-12-08T01:44:36.189Z,30.13
2022-12-08T01:49:40.878Z,25.17
2022-12-08T01:54:50.473Z,22.20
2022-12-08T01:59:57.490Z,28.93
2022-12-08T02:05:02.992Z,24.25
2022-12-08T02:10:11.800Z,25.30
2022-12-08T02:15:16.994Z,33.78
2022-12-08T02:20:37.438Z,31.67
2022-12-08T02:25:51.798Z,26.05
2022-12-08T02:31:01.298Z,25.08
2022-12-08T02:36:13.507Z,28.70
2022-12-08T02:41:23.774Z,24.63
2022-12-08T02:46:32.085Z,28.70
2022-12-08T02:51:39.478Z,44.33
2022-12-08T02:56:52.934Z,28.75
2022-12-08T03:02:16.374Z,25.27
2022-12-08T03:07:28.249Z,26.17
2022-12-08T03:12:34.968Z,25.23
2022-12-08T03:17:40.638Z,25.58
2022-12-08T03:22:48.872Z,24.17
2022-12-08T03:27:54.272Z,25.83
2022-12-08T03:33:01.924Z,26.55
2022-12-08T03:38:10.888Z,25.63
2022-12-08T03:43:15.574Z,25.98
2022-12-08T03:48:20.353Z,25.45
2022-12-08T03:53:27.646Z,22.52
2022-12-08T03:58:37.255Z,25.60
2022-12-08T04:03:42.250Z,43.05
2022-12-08T04:08:49.974Z,41.80
2022-12-08T04:13:54.707Z,29.90
2022-12-08T04:18:59.455Z,25.83
2022-12-08T04:24:08.070Z,26.65
2022-12-08T04:29:12.808Z,24.33
2022-12-08T04:34:17.512Z,24.35
2022-12-08T04:39:24.880Z,24.13
2022-12-08T04:44:29.576Z,26.38
2022-12-08T04:49:34.291Z,28.92
2022-12-08T04:54:41.621Z,29.10
2022-12-08T04:59:46.259Z,28.17
2022-12-08T05:04:51.098Z,27.45
2022-12-08T05:09:58.373Z,25.38
2022-12-08T05:15:03.037Z,22.00
2022-12-08T05:20:08.359Z,28.77
2022-12-08T05:25:15.789Z,24.27
2022-12-08T05:30:20.560Z,26.92
2022-12-08T05:35:25.233Z,23.98
2022-12-08T05:40:32.683Z,23.25
2022-12-08T05:45:37.458Z,21.33
2022-12-08T05:50:42.277Z,23.00
2022-12-08T05:55:49.600Z,28.33
2022-12-08T06:00:54.403Z,21.13
2022-12-08T06:05:59.479Z,19.35
2022-12-08T06:11:06.797Z,33.67
2022-12-08T06:16:11.498Z,26.30
2022-12-08T06:21:16.974Z,18.63
2022-12-08T06:26:24.515Z,17.90
2022-12-08T06:31:29.739Z,20.88
2022-12-08T06:36:35.148Z,20.52
2022-12-08T06:41:54.564Z,17.27
2022-12-08T06:46:59.536Z,15.88
2022-12-08T06:52:04.233Z,18.17
2022-12-08T06:57:11.544Z,20.58
2022-12-08T07:02:17.452Z,16.42
2022-12-08T07:07:22.110Z,17.50
2022-12-08T07:12:29.574Z,18.23
2022-12-08T07:17:34.257Z,17.58
2022-12-08T07:22:39.851Z,19.23
2022-12-08T07:27:47.283Z,14.15
2022-12-08T07:32:52.008Z,17.52
2022-12-08T07:37:57.959Z,16.50
2022-12-08T07:43:05.249Z,24.35
2022-12-08T07:48:09.956Z,18.13
2022-12-08T07:53:14.626Z,15.02
2022-12-08T07:58:21.941Z,12.10
2022-12-08T08:03:26.648Z,17.65
2022-12-08T08:08:31.492Z,15.55
2022-12-08T08:13:39.000Z,19.73
2022-12-08T08:18:43.745Z,14.70
2022-12-08T08:23:48.492Z,12.55
2022-12-08T08:28:55.840Z,14.48
2022-12-08T08:34:05.120Z,14.85
2022-12-08T08:39:10.072Z,14.98
2022-12-08T08:44:18.588Z,15.50
2022-12-08T08:49:23.349Z,17.23
2022-12-08T09:00:13.499Z,16.15
2022-12-08T09:05:18.715Z,18.47
2022-12-08T09:10:23.497Z,17.63
2022-12-08T09:15:30.972Z,17.05
2022-12-08T09:20:35.820Z,17.40
2022-12-08T09:25:40.933Z,23.80
2022-12-08T09:30:48.226Z,23.70
2022-12-08T09:35:52.871Z,23.15
2022-12-08T09:40:58.714Z,27.25
2022-12-08T09:46:07.785Z,16.88
2022-12-08T09:51:13.356Z,18.65
2022-12-08T09:56:19.292Z,16.42
2022-12-08T10:01:29.802Z,24.83
2022-12-08T10:06:36.154Z,28.75
2022-12-08T10:11:46.632Z,21.95
2022-12-08T10:16:56.767Z,27.73
2022-12-08T10:27:42.157Z,14.37
2022-12-08T10:32:51.961Z,13.32
2022-12-08T10:38:00.375Z,13.70
2022-12-08T10:43:05.353Z,17.08
2022-12-08T10:48:17.175Z,16.48
2022-12-08T10:53:24.493Z,11.88
2022-12-08T10:58:30.290Z,17.95
2022-12-08T11:03:42.391Z,17.15
2022-12-08T11:08:48.882Z,21.08
2022-12-08T11:13:54.424Z,54.13
2022-12-08T11:19:01.886Z,13.85
2022-12-08T11:24:20.950Z,11.95
2022-12-08T11:29:25.688Z,10.98
2022-12-08T11:34:35.128Z,11.57
2022-12-08T11:39:44.643Z,9.80
2022-12-08T11:44:52.316Z,10.20
2022-12-08T11:50:04.386Z,9.43
2022-12-08T11:55:19.507Z,10.80
2022-12-08T12:00:24.433Z,10.20
2022-12-08T12:11:07.272Z,12.13
2022-12-08T12:16:26.574Z,13.10
2022-12-08T12:21:36.441Z,14.55
2022-12-08T12:26:42.429Z,17.45
2022-12-08T12:31:53.124Z,23.77
2022-12-08T12:37:01.652Z,16.98
2022-12-08T12:42:07.196Z,26.67
2022-12-08T12:47:16.144Z,42.78
2022-12-08T12:52:35.784Z,40.92
2022-12-08T12:57:52.824Z,30.27
2022-12-08T13:02:58.953Z,32.50
2022-12-08T13:08:07.104Z,27.48
2022-12-08T13:13:21.846Z,23.27
2022-12-08T13:18:27.890Z,20.95
2022-12-08T13:23:45.626Z,28.33
2022-12-08T13:29:05.238Z,20.88
2022-12-08T13:34:15.960Z,18.23
2022-12-08T13:39:23.452Z,19.10
2022-12-08T14:01:00.155Z,24.33
2022-12-08T14:11:33.760Z,17.98
2022-12-08T14:16:40.612Z,26.88
2022-12-08T14:21:45.229Z,29.38
2022-12-08T14:26:53.410Z,41.70
2022-12-08T14:31:58.167Z,42.83
2022-12-08T14:37:02.854Z,29.38
2022-12-08T14:42:10.189Z,27.35
2022-12-08T14:47:21.294Z,27.77
2022-12-08T14:52:26.191Z,16.92
2022-12-08T14:57:36.651Z,16.45
2022-12-08T15:07:49.943Z,14.43
2022-12-08T15:13:08.786Z,22.98
2022-12-08T15:18:18.532Z,22.02
2022-12-08T15:23:28.663Z,23.02
2022-12-08T15:28:36.152Z,21.73
2022-12-08T15:33:41.467Z,24.70
2022-12-08T15:38:46.158Z,27.13
2022-12-08T15:43:53.622Z,25.35
2022-12-08T15:48:58.456Z,33.47
2022-12-08T15:54:03.169Z,25.50
2022-12-08T15:59:13.180Z,29.67
2022-12-08T16:05:11.499Z,33.67
2022-12-08T16:09:45.009Z,184.13
2022-12-08T16:20:18.292Z,55.65
2022-12-08T16:25:23.551Z,35.95
2022-12-08T16:30:31.372Z,32.30
2022-12-08T16:35:36.332Z,33.33
2022-12-08T16:41:01.056Z,55.25
2022-12-08T16:46:08.457Z,45.45
2022-12-08T16:51:22.007Z,72.53
2022-12-08T16:56:33.167Z,84.43
2022-12-08T17:01:41.125Z,86.95
2022-12-08T17:06:51.080Z,55.35
2022-12-08T17:12:01.890Z,47.70
2022-12-08T17:17:11.117Z,45.17
2022-12-08T17:22:15.745Z,88.43
2022-12-08T17:27:20.609Z,159.10
2022-12-08T17:32:28.033Z,109.90
2022-12-08T17:37:32.820Z,49.08
2022-12-08T17:42:38.803Z,105.90
2022-12-08T17:47:46.253Z,59.00
2022-12-08T17:52:53.057Z,104.43
2022-12-08T17:58:00.340Z,67.88
2022-12-08T18:03:07.755Z,82.43
2022-12-08T18:08:13.023Z,88.97
2022-12-08T18:13:17.928Z,58.47
2022-12-08T18:18:25.577Z,56.00
2022-12-08T18:23:30.375Z,61.83
2022-12-08T18:28:44.700Z,70.57
2022-12-08T18:33:52.530Z,60.42
2022-12-08T18:38:57.293Z,95.20
2022-12-08T18:44:02.049Z,82.72
2022-12-08T18:49:11.792Z,85.53
2022-12-08T18:54:22.118Z,91.50
2022-12-08T18:59:32.904Z,80.75
2022-12-08T19:04:40.362Z,127.50
2022-12-08T19:09:45.145Z,101.82
2022-12-08T19:14:50.044Z,54.88
2022-12-08T19:19:57.455Z,62.88
2022-12-08T19:25:02.150Z,57.08
2022-12-08T19:30:07.794Z,90.03
2022-12-08T19:35:15.505Z,73.10
2022-12-08T19:40:32.618Z,65.90
2022-12-08T19:45:38.308Z,70.63
2022-12-08T19:50:45.871Z,57.80
2022-12-08T19:55:50.937Z,103.75
2022-12-08T20:00:55.864Z,89.47
2022-12-08T20:06:03.266Z,58.72
2022-12-08T20:16:28.303Z,73.68
2022-12-08T20:27:16.336Z,54.33
2022-12-08T20:38:15.839Z,61.83
2022-12-08T20:43:23.311Z,66.55
2022-12-08T20:59:05.832Z,71.70
2022-12-08T21:04:13.950Z,65.18
2022-12-08T21:09:19.129Z,63.80
2022-12-08T21:14:26.970Z,75.00
2022-12-08T21:19:31.871Z,83.50
2022-12-08T21:24:36.713Z,64.22
2022-12-08T21:29:44.551Z,165.20
2022-12-08T21:34:49.520Z,80.20
2022-12-08T21:39:54.396Z,81.50
2022-12-08T21:45:01.954Z,75.63
2022-12-08T21:50:09.081Z,88.70
2022-12-08T21:55:14.835Z,87.90
2022-12-08T22:00:23.795Z,82.85
2022-12-08T22:05:29.906Z,76.05
2022-12-08T22:10:34.909Z,66.82
2022-12-08T22:15:42.585Z,72.97
2022-12-08T22:20:47.415Z,86.95
2022-12-08T22:25:58.844Z,96.85
2022-12-08T22:31:10.305Z,87.43
2022-12-08T22:36:17.411Z,87.40
2022-12-08T22:41:22.748Z,96.65
2022-12-08T22:46:36.117Z,77.05
2022-12-08T22:51:41.221Z,72.20
2022-12-08T22:56:46.299Z,73.72
2022-12-08T23:01:54.213Z,84.63
2022-12-08T23:06:58.944Z,74.95
2022-12-08T23:12:03.774Z,76.28
2022-12-08T23:17:11.283Z,69.45
2022-12-08T23:22:16.071Z,68.75
2022-12-08T23:27:20.867Z,70.88
2022-12-08T23:32:28.696Z,60.58
2022-12-08T23:37:33.603Z,63.78
2022-12-08T23:42:38.458Z,99.65
2022-12-08T23:47:46.040Z,104.97
2022-12-08T23:52:50.951Z,128.23
2022-12-08T23:57:55.791Z,99.90
